Time;durP1;ratioP1;P1;durP2;ratioP2;P2;SDS_P1;SDS_P2;PMS_P1;PMS_P2;Temp;Humidity;BMP_temperature;BMP_pressure;BME280_temperature;BME280_humidity;BME280_pressure;Samples;Min_cycle;Max_cycle;Signal;HPM_P1;HPM_P2
2021/12/11 00:01:23;;;;;;;;;;;6.20;59.40;;;;;;5053457;28;19990;-65
2021/12/11 00:03:54;;;;;;;;;;;6.20;59.40;;;;;;5052182;28;19940;-66
2021/12/11 00:06:28;;;;;;;;;;;6.20;59.40;;;;;;5052051;28;19909;-66
2021/12/11 00:08:57;;;;;;;;;;;6.20;59.30;;;;;;5053167;28;20375;-66
2021/12/11 00:11:23;;;;;;;;;;;6.20;59.40;;;;;;5053158;28;19912;-66
2021/12/11 00:13:52;;;;;;;;;;;6.20;59.40;;;;;;5053070;28;20420;-66
2021/12/11 00:16:18;;;;;;;;;;;6.20;59.40;;;;;;5051732;28;20366;-66
2021/12/11 00:18:48;;;;;;;;;;;6.20;59.40;;;;;;5053025;28;20441;-66
2021/12/11 00:21:16;;;;;;;;;;;6.20;59.40;;;;;;5053099;28;20005;-66
2021/12/11 00:23:45;;;;;;;;;;;6.20;59.40;;;;;;5052989;28;19908;-66
2021/12/11 00:26:11;;;;;;;;;;;6.20;59.40;;;;;;5051616;28;19909;-66
2021/12/11 00:28:48;;;;;;;;;;;6.20;59.40;;;;;;5051741;28;19913;-66
2021/12/11 00:31:14;;;;;;;;;;;6.20;59.40;;;;;;5052882;28;19909;-66
2021/12/11 00:33:40;;;;;;;;;;;6.20;59.40;;;;;;5052790;28;19909;-66
2021/12/11 00:36:14;;;;;;;;;;;6.20;59.40;;;;;;5052609;28;20416;-66
2021/12/11 00:38:40;;;;;;;;;;;6.20;59.30;;;;;;5052621;28;19913;-66
2021/12/11 00:41:08;;;;;;;;;;;6.20;59.20;;;;;;5052715;28;20297;-66
2021/12/11 00:43:35;;;;;;;;;;;6.10;59.10;;;;;;5052728;28;19913;-66
2021/12/11 00:46:03;;;;;;;;;;;6.10;59.10;;;;;;5052771;28;19909;-66
2021/12/11 00:48:29;;;;;;;;;;;6.00;59.10;;;;;;5052690;28;19909;-66
2021/12/11 00:50:57;;;;;;;;;;;6.00;59.10;;;;;;5052764;28;19931;-66
2021/12/11 00:53:26;;;;;;;;;;;6.00;59.20;;;;;;5052657;28;19984;-66
2021/12/11 00:55:53;;;;;;;;;;;6.00;59.30;;;;;;5052573;28;20384;-66
2021/12/11 00:58:24;;;;;;;;;;;6.00;59.30;;;;;;5052538;28;20016;-66
2021/12/11 01:00:49;;;;;;;;;;;6.00;59.40;;;;;;5052499;28;19912;-66
2021/12/11 01:03:18;;;;;;;;;;;6.00;59.50;;;;;;5052502;28;20243;-65
2021/12/11 01:05:45;;;;;;;;;;;6.00;59.50;;;;;;5052831;28;20278;-66
2021/12/11 01:08:17;;;;;;;;;;;5.90;59.50;;;;;;5052565;28;20363;-65
2021/12/11 01:10:43;;;;;;;;;;;5.90;59.50;;;;;;5052501;28;19909;-65
2021/12/11 01:13:13;;;;;;;;;;;5.90;59.50;;;;;;5052583;28;20362;-66
2021/12/11 01:15:44;;;;;;;;;;;5.90;59.50;;;;;;5052245;28;19916;-66
2021/12/11 01:26:11;;;;;;;;;;;5.90;59.60;;;;;;5050166;28;19909;-65
2021/12/11 01:28:37;;;;;;;;;;;5.80;59.60;;;;;;5050155;28;19925;-66
2021/12/11 01:31:04;;;;;;;;;;;5.80;59.60;;;;;;5050135;28;19916;-66
2021/12/11 01:33:30;;;;;;;;;;;5.80;59.60;;;;;;5049884;28;20012;-66
2021/12/11 01:35:58;;;;;;;;;;;5.80;59.60;;;;;;5050101;28;19909;-66
2021/12/11 01:38:25;;;;;;;;;;;5.80;59.70;;;;;;5049970;28;19913;-66
2021/12/11 01:40:53;;;;;;;;;;;5.80;59.70;;;;;;5049989;28;19909;-66
2021/12/11 01:43:23;;;;;;;;;;;5.80;59.70;;;;;;5049844;28;19905;-66
2021/12/11 01:45:50;;;;;;;;;;;5.80;59.80;;;;;;5050079;28;19909;-66
2021/12/11 01:48:24;;;;;;;;;;;5.80;59.80;;;;;;5051546;28;19959;-66
2021/12/11 01:50:54;;;;;;;;;;;5.80;59.80;;;;;;5053751;28;20286;-66
2021/12/11 01:53:22;;;;;;;;;;;5.80;59.90;;;;;;5053472;28;19959;-66
2021/12/11 01:55:50;;;;;;;;;;;5.80;59.90;;;;;;5036951;28;19955;-66
2021/12/11 01:58:21;;;;;;;;;;;5.70;59.80;;;;;;5053524;28;20012;-66
2021/12/11 02:00:50;;;;;;;;;;;5.70;59.90;;;;;;5055248;28;20371;-66
2021/12/11 02:03:18;;;;;;;;;;;5.70;59.90;;;;;;5055512;28;19912;-66
2021/12/11 02:05:43;;;;;;;;;;;5.70;59.90;;;;;;5055368;28;19909;-66
2021/12/11 02:08:14;;;;;;;;;;;5.70;60.00;;;;;;5055417;28;20373;-66
2021/12/11 02:10:44;;;;;;;;;;;5.70;60.10;;;;;;5055363;28;19909;-66
2021/12/11 02:13:18;;;;;;;;;;;5.70;60.00;;;;;;5055270;28;19927;-65
2021/12/11 02:15:49;;;;;;;;;;;5.70;60.30;;;;;;5055130;28;20285;-65
2021/12/11 02:18:33;;;;;;;;;;;5.70;60.10;;;;;;5055194;28;19917;-66
2021/12/11 02:21:01;;;;;;;;;;;5.70;60.20;;;;;;5055167;28;20370;-66
2021/12/11 02:23:27;;;;;;;;;;;5.70;60.30;;;;;;5055109;28;20290;-66
2021/12/11 02:25:54;;;;;;;;;;;5.70;60.30;;;;;;5055066;28;19931;-66
2021/12/11 02:28:20;;;;;;;;;;;5.70;60.40;;;;;;5054992;28;19999;-66
2021/12/11 02:30:49;;;;;;;;;;;5.70;60.30;;;;;;5054992;28;20012;-66
2021/12/11 02:33:15;;;;;;;;;;;5.70;60.30;;;;;;5053718;28;20007;-66
2021/12/11 02:35:46;;;;;;;;;;;5.70;60.30;;;;;;5055057;28;19909;-65
2021/12/11 02:38:12;;;;;;;;;;;5.70;60.30;;;;;;5054871;28;19959;-65
2021/12/11 02:40:44;;;;;;;;;;;5.80;60.50;;;;;;5054925;28;19959;-65
2021/12/11 02:43:17;;;;;;;;;;;5.70;60.40;;;;;;5054961;28;19909;-65
2021/12/11 02:45:45;;;;;;;;;;;5.80;60.50;;;;;;5054835;28;19975;-65
2021/12/11 02:48:34;;;;;;;;;;;5.80;60.50;;;;;;5054765;28;19908;-65
2021/12/11 02:51:20;;;;;;;;;;;5.80;60.50;;;;;;5054148;28;19951;-65
2021/12/11 02:53:49;;;;;;;;;;;5.80;60.60;;;;;;5054352;28;19909;-65
2021/12/11 02:56:17;;;;;;;;;;;5.80;60.50;;;;;;5054846;28;20369;-65
2021/12/11 02:58:45;;;;;;;;;;;5.70;60.50;;;;;;5054353;28;19913;-65
2021/12/11 03:01:20;;;;;;;;;;;5.80;60.60;;;;;;5053924;28;19909;-65
2021/12/11 03:03:53;;;;;;;;;;;5.80;60.60;;;;;;5054534;28;19947;-65
2021/12/11 03:06:22;;;;;;;;;;;5.70;60.60;;;;;;5054361;28;19916;-65
2021/12/11 03:08:50;;;;;;;;;;;5.80;60.70;;;;;;5054403;28;19909;-65
2021/12/11 03:11:18;;;;;;;;;;;5.80;60.70;;;;;;5054229;28;19913;-65
2021/12/11 03:13:50;;;;;;;;;;;5.80;60.60;;;;;;5054282;28;19912;-66
2021/12/11 03:16:20;;;;;;;;;;;5.80;60.50;;;;;;5054067;28;19917;-65
2021/12/11 03:18:46;;;;;;;;;;;5.80;60.40;;;;;;5054167;28;19916;-65
2021/12/11 03:21:12;;;;;;;;;;;5.80;60.40;;;;;;5054165;28;19909;-65
2021/12/11 03:23:38;;;;;;;;;;;5.80;60.40;;;;;;5054129;28;20378;-66
2021/12/11 03:26:06;;;;;;;;;;;5.80;60.40;;;;;;5054012;28;19915;-66
2021/12/11 03:28:32;;;;;;;;;;;5.80;60.50;;;;;;5054025;28;19958;-66
2021/12/11 03:31:00;;;;;;;;;;;5.80;60.50;;;;;;5053940;28;20308;-67
2021/12/11 03:33:27;;;;;;;;;;;5.80;60.60;;;;;;5052568;28;19990;-67
2021/12/11 03:35:55;;;;;;;;;;;5.80;60.60;;;;;;5053816;28;20054;-67
2021/12/11 03:38:21;;;;;;;;;;;5.90;60.60;;;;;;5053611;28;19920;-66
2021/12/11 03:40:46;;;;;;;;;;;5.80;60.60;;;;;;5053827;28;19909;-66
2021/12/11 03:43:14;;;;;;;;;;;5.90;60.60;;;;;;5053689;28;19905;-66
2021/12/11 03:45:40;;;;;;;;;;;5.90;60.60;;;;;;5053685;28;19909;-66
2021/12/11 03:48:11;;;;;;;;;;;5.90;60.60;;;;;;5053528;28;19905;-66
2021/12/11 03:50:37;;;;;;;;;;;5.90;60.50;;;;;;5059654;28;19944;-66
2021/12/11 03:53:03;;;;;;;;;;;5.90;60.50;;;;;;5073486;28;20366;-67
2021/12/11 03:55:30;;;;;;;;;;;6.00;60.50;;;;;;5073373;28;19908;-66
2021/12/11 03:58:00;;;;;;;;;;;6.00;60.60;;;;;;5072100;28;19948;-65
2021/12/11 04:00:29;;;;;;;;;;;6.00;60.50;;;;;;5073302;28;20416;-65
2021/12/11 04:03:02;;;;;;;;;;;6.00;60.40;;;;;;5073371;28;19909;-65
2021/12/11 04:05:28;;;;;;;;;;;6.10;60.40;;;;;;5072123;28;20293;-66
2021/12/11 04:07:54;;;;;;;;;;;6.10;60.30;;;;;;5073271;28;19920;-66
2021/12/11 04:10:20;;;;;;;;;;;6.10;60.30;;;;;;5073225;28;19909;-66
2021/12/11 04:12:48;;;;;;;;;;;6.10;60.30;;;;;;5072239;28;20286;-66
2021/12/11 04:15:14;;;;;;;;;;;6.10;60.20;;;;;;5072907;28;19916;-66
2021/12/11 04:17:40;;;;;;;;;;;6.10;60.10;;;;;;5073038;28;19908;-66
2021/12/11 04:20:09;;;;;;;;;;;6.10;60.20;;;;;;5073053;28;19908;-66
2021/12/11 04:22:35;;;;;;;;;;;6.10;60.20;;;;;;5071844;28;19908;-66
2021/12/11 04:25:01;;;;;;;;;;;6.10;60.20;;;;;;5072961;28;19909;-66
2021/12/11 04:27:27;;;;;;;;;;;6.20;60.20;;;;;;5073325;28;19961;-66
2021/12/11 04:29:54;;;;;;;;;;;6.20;60.20;;;;;;5072822;28;19909;-66
2021/12/11 04:32:21;;;;;;;;;;;6.20;60.20;;;;;;5072960;28;19936;-65
2021/12/11 04:34:47;;;;;;;;;;;6.20;60.20;;;;;;5072848;28;19908;-66
2021/12/11 04:37:17;;;;;;;;;;;6.30;60.30;;;;;;5072905;28;20563;-66
2021/12/11 04:39:45;;;;;;;;;;;6.30;60.30;;;;;;5072779;28;20003;-66
2021/12/11 04:42:20;;;;;;;;;;;6.30;60.30;;;;;;5072844;28;19908;-66
2021/12/11 04:44:47;;;;;;;;;;;6.40;60.30;;;;;;5072830;28;19909;-66
2021/12/11 04:47:21;;;;;;;;;;;6.40;61.00;;;;;;5072707;28;19962;-66
2021/12/11 04:49:54;;;;;;;;;;;6.40;60.20;;;;;;5072610;28;19909;-66
2021/12/11 04:52:33;;;;;;;;;;;6.40;60.20;;;;;;5072683;28;19908;-66
2021/12/11 04:58:05;;;;;;;;;;;6.50;60.20;;;;;;5071437;28;19913;-66
2021/12/11 05:11:13;;;;;;;;;;;6.60;60.10;;;;;;5072917;28;19916;-66
2021/12/11 05:13:39;;;;;;;;;;;6.60;60.00;;;;;;5072799;28;19909;-66
2021/12/11 05:16:06;;;;;;;;;;;6.60;60.00;;;;;;5071244;28;20004;-67
2021/12/11 05:18:33;;;;;;;;;;;6.60;60.00;;;;;;5072653;28;19916;-67
2021/12/11 05:21:00;;;;;;;;;;;6.60;60.00;;;;;;5072722;28;19915;-66
2021/12/11 05:23:25;;;;;;;;;;;6.70;60.00;;;;;;5074547;28;20358;-66
2021/12/11 05:25:51;;;;;;;;;;;6.70;60.00;;;;;;5076552;28;19961;-65
2021/12/11 05:28:17;;;;;;;;;;;6.70;60.00;;;;;;5076440;28;20045;-65
2021/12/11 05:30:44;;;;;;;;;;;6.70;59.90;;;;;;5076424;28;20011;-65
2021/12/11 05:33:10;;;;;;;;;;;6.70;59.90;;;;;;5076295;28;19904;-65
2021/12/11 05:35:37;;;;;;;;;;;6.70;59.90;;;;;;5076421;28;19913;-64
2021/12/11 05:38:04;;;;;;;;;;;6.70;59.90;;;;;;5076502;28;20013;-65
2021/12/11 05:40:31;;;;;;;;;;;6.70;59.80;;;;;;5076172;28;19915;-65
2021/12/11 05:42:57;;;;;;;;;;;6.70;59.80;;;;;;5076132;28;20429;-65
2021/12/11 05:45:23;;;;;;;;;;;6.70;59.80;;;;;;5076186;28;20008;-65
2021/12/11 05:47:49;;;;;;;;;;;6.80;59.90;;;;;;5075987;28;19940;-65
2021/12/11 05:50:17;;;;;;;;;;;6.80;59.90;;;;;;5076093;28;19962;-65
2021/12/11 05:52:43;;;;;;;;;;;6.80;59.80;;;;;;5076028;28;19909;-65
2021/12/11 05:55:13;;;;;;;;;;;6.80;59.90;;;;;;5074733;28;19908;-65
2021/12/11 05:57:41;;;;;;;;;;;6.80;59.90;;;;;;5075932;28;19908;-65
2021/12/11 06:00:08;;;;;;;;;;;6.80;59.80;;;;;;5075880;28;20362;-65
2021/12/11 06:02:34;;;;;;;;;;;6.80;59.80;;;;;;5075854;28;19939;-65
2021/12/11 06:04:59;;;;;;;;;;;6.80;59.70;;;;;;5075807;28;19959;-65
2021/12/11 06:07:26;;;;;;;;;;;6.80;59.90;;;;;;5075624;28;20369;-65
2021/12/11 06:09:54;;;;;;;;;;;6.80;59.80;;;;;;5075534;28;19931;-65
2021/12/11 06:12:20;;;;;;;;;;;6.80;59.70;;;;;;5075527;28;19915;-65
2021/12/11 06:14:47;;;;;;;;;;;6.90;59.80;;;;;;5075345;28;19916;-65
2021/12/11 06:17:15;;;;;;;;;;;6.90;59.70;;;;;;5075681;28;19909;-65
2021/12/11 06:19:49;;;;;;;;;;;6.90;59.70;;;;;;5075387;28;19924;-65
2021/12/11 06:22:15;;;;;;;;;;;6.90;59.70;;;;;;5075448;28;20062;-65
2021/12/11 06:24:41;;;;;;;;;;;6.90;59.70;;;;;;5075424;28;20285;-65
2021/12/11 06:27:06;;;;;;;;;;;6.90;59.70;;;;;;5075425;28;19909;-65
2021/12/11 06:29:32;;;;;;;;;;;6.90;59.70;;;;;;5075297;28;19968;-65
2021/12/11 06:31:58;;;;;;;;;;;6.90;59.80;;;;;;5075244;28;19917;-65
2021/12/11 06:34:24;;;;;;;;;;;6.90;59.80;;;;;;5074096;28;20035;-65
2021/12/11 06:36:50;;;;;;;;;;;6.90;59.80;;;;;;5075088;28;19916;-65
2021/12/11 06:39:18;;;;;;;;;;;6.90;59.90;;;;;;5075005;28;19955;-65
2021/12/11 06:41:45;;;;;;;;;;;6.90;59.90;;;;;;5075127;28;19909;-65
2021/12/11 06:44:11;;;;;;;;;;;6.90;59.90;;;;;;5074996;28;19908;-66
2021/12/11 06:46:37;;;;;;;;;;;6.90;59.90;;;;;;5074896;28;19919;-66
2021/12/11 06:49:04;;;;;;;;;;;6.90;60.00;;;;;;5074949;28;19948;-66
2021/12/11 06:51:29;;;;;;;;;;;6.90;60.00;;;;;;5074824;28;19916;-66
2021/12/11 06:53:58;;;;;;;;;;;6.90;60.00;;;;;;5074833;28;19908;-66
2021/12/11 06:56:24;;;;;;;;;;;7.00;60.20;;;;;;5074710;28;20389;-65
2021/12/11 06:58:51;;;;;;;;;;;7.00;60.20;;;;;;5074728;28;19913;-65
2021/12/11 07:01:18;;;;;;;;;;;7.00;60.20;;;;;;5074635;28;19909;-65
2021/12/11 07:03:44;;;;;;;;;;;7.00;60.20;;;;;;5074628;28;20389;-65
2021/12/11 07:06:10;;;;;;;;;;;7.00;60.10;;;;;;5074572;28;19908;-65
2021/12/11 07:08:38;;;;;;;;;;;7.00;60.20;;;;;;5074543;28;19962;-66
2021/12/11 07:11:04;;;;;;;;;;;7.00;60.20;;;;;;5074475;28;19908;-65
2021/12/11 07:13:29;;;;;;;;;;;7.00;60.20;;;;;;5074455;28;20043;-65
2021/12/11 07:15:56;;;;;;;;;;;7.00;60.20;;;;;;5072905;28;19917;-66
2021/12/11 07:18:22;;;;;;;;;;;7.00;60.20;;;;;;5074216;28;19916;-66
2021/12/11 07:20:48;;;;;;;;;;;7.00;60.20;;;;;;5074227;28;20443;-65
2021/12/11 07:23:14;;;;;;;;;;;7.00;60.30;;;;;;5074277;28;19904;-65
2021/12/11 07:25:40;;;;;;;;;;;7.00;60.30;;;;;;5074201;28;19913;-66
2021/12/11 07:28:07;;;;;;;;;;;7.10;60.30;;;;;;5074056;28;19912;-65
2021/12/11 07:30:33;;;;;;;;;;;7.10;60.40;;;;;;5074184;28;19956;-65
2021/12/11 07:33:00;;;;;;;;;;;7.10;60.40;;;;;;5074129;28;19912;-65
2021/12/11 07:35:26;;;;;;;;;;;7.10;60.40;;;;;;5073984;28;20358;-65
2021/12/11 07:37:53;;;;;;;;;;;7.20;60.40;;;;;;5073955;28;19958;-65
2021/12/11 07:40:20;;;;;;;;;;;7.20;60.30;;;;;;5073853;28;19908;-66
2021/12/11 07:42:45;;;;;;;;;;;7.20;60.20;;;;;;5073851;28;20366;-66
2021/12/11 07:45:11;;;;;;;;;;;7.20;60.20;;;;;;5073561;28;20000;-66
2021/12/11 07:47:37;;;;;;;;;;;7.20;60.20;;;;;;5073763;28;19908;-66
2021/12/11 07:50:03;;;;;;;;;;;7.20;60.20;;;;;;5073645;28;19912;-66
2021/12/11 07:52:29;;;;;;;;;;;7.20;60.20;;;;;;5073610;28;19931;-65
2021/12/11 07:54:55;;;;;;;;;;;7.20;60.10;;;;;;5073581;28;20259;-66
2021/12/11 07:57:20;;;;;;;;;;;7.20;60.10;;;;;;5073626;28;19993;-66
2021/12/11 07:59:46;;;;;;;;;;;7.20;60.20;;;;;;5073685;28;19923;-66
2021/12/11 08:02:12;;;;;;;;;;;7.20;60.30;;;;;;5073590;28;20347;-66
2021/12/11 08:04:37;;;;;;;;;;;7.20;60.20;;;;;;5073510;28;19909;-65
2021/12/11 08:07:03;;;;;;;;;;;7.20;60.20;;;;;;5073458;28;19955;-66
2021/12/11 08:09:29;;;;;;;;;;;7.30;60.20;;;;;;5073408;28;19962;-66
2021/12/11 08:11:55;;;;;;;;;;;7.30;60.30;;;;;;5073310;28;19912;-66
2021/12/11 08:14:21;;;;;;;;;;;7.30;60.30;;;;;;5073323;28;19908;-65
2021/12/11 08:16:47;;;;;;;;;;;7.30;60.30;;;;;;5073190;28;20008;-65
2021/12/11 08:19:18;;;;;;;;;;;7.40;60.50;;;;;;5073243;28;19916;-65
2021/12/11 08:21:45;;;;;;;;;;;7.40;60.50;;;;;;5073189;28;19916;-66
2021/12/11 08:24:10;;;;;;;;;;;7.40;60.50;;;;;;5073358;28;19908;-67
2021/12/11 08:26:37;;;;;;;;;;;7.50;60.50;;;;;;5073168;28;19913;-67
2021/12/11 08:29:04;;;;;;;;;;;7.50;60.50;;;;;;5073193;28;19908;-66
2021/12/11 08:31:29;;;;;;;;;;;7.60;60.50;;;;;;5073046;28;19909;-66
2021/12/11 08:33:55;;;;;;;;;;;7.60;60.40;;;;;;5073308;28;19916;-66
2021/12/11 08:36:21;;;;;;;;;;;7.70;60.40;;;;;;5073406;28;19909;-66
2021/12/11 08:38:47;;;;;;;;;;;7.70;60.30;;;;;;5072945;28;20003;-67
2021/12/11 08:41:14;;;;;;;;;;;7.70;60.20;;;;;;5073103;28;20477;-67
2021/12/11 08:43:41;;;;;;;;;;;7.70;60.10;;;;;;5072868;28;20378;-67
2021/12/11 08:46:10;;;;;;;;;;;7.80;60.10;;;;;;5072940;28;19915;-65
2021/12/11 08:48:46;;;;;;;;;;;7.80;60.10;;;;;;5073005;28;19913;-65
2021/12/11 08:51:20;;;;;;;;;;;7.90;60.10;;;;;;5072912;28;19908;-66
2021/12/11 08:53:45;;;;;;;;;;;7.90;60.00;;;;;;5072860;28;20027;-65
2021/12/11 08:56:12;;;;;;;;;;;8.00;60.00;;;;;;5073158;28;20398;-66
2021/12/11 08:58:39;;;;;;;;;;;7.90;60.00;;;;;;5075191;28;19916;-65
2021/12/11 09:01:11;;;;;;;;;;;8.00;59.90;;;;;;5076948;28;19915;-66
2021/12/11 09:03:46;;;;;;;;;;;8.00;59.80;;;;;;5075596;28;19912;-66
2021/12/11 09:06:21;;;;;;;;;;;8.00;59.80;;;;;;5076870;28;19908;-65
2021/12/11 09:08:49;;;;;;;;;;;7.90;59.70;;;;;;5075539;28;19908;-66
2021/12/11 09:11:17;;;;;;;;;;;8.00;59.70;;;;;;5076807;28;20273;-65
2021/12/11 09:13:46;;;;;;;;;;;7.90;59.70;;;;;;5076692;28;19951;-65
2021/12/11 09:16:24;;;;;;;;;;;7.90;59.70;;;;;;5075129;28;20020;-65
2021/12/11 09:18:55;;;;;;;;;;;8.00;59.70;;;;;;5076506;28;19970;-65
2021/12/11 09:21:25;;;;;;;;;;;8.00;59.70;;;;;;5076561;28;19915;-65
2021/12/11 09:24:03;;;;;;;;;;;8.00;59.80;;;;;;5076501;28;19909;-65
2021/12/11 09:26:32;;;;;;;;;;;8.00;59.80;;;;;;5076504;28;19909;-66
2021/12/11 09:29:11;;;;;;;;;;;8.00;59.70;;;;;;5076395;28;19916;-67
2021/12/11 09:31:57;;;;;;;;;;;8.00;59.70;;;;;;5076345;28;19909;-65
2021/12/11 09:34:27;;;;;;;;;;;8.00;59.70;;;;;;5075500;28;19904;-66
2021/12/11 09:36:55;;;;;;;;;;;8.00;59.60;;;;;;5076243;28;20002;-66
2021/12/11 09:39:31;;;;;;;;;;;8.00;59.70;;;;;;5076121;28;20003;-66
2021/12/11 09:41:56;;;;;;;;;;;8.00;59.70;;;;;;5076085;28;19951;-66
2021/12/11 09:44:27;;;;;;;;;;;8.00;59.70;;;;;;5076142;28;19940;-66
2021/12/11 09:46:55;;;;;;;;;;;8.00;59.70;;;;;;5076014;28;19908;-66
2021/12/11 09:49:24;;;;;;;;;;;8.00;59.70;;;;;;5075914;28;19941;-66
2021/12/11 09:51:58;;;;;;;;;;;8.00;59.70;;;;;;5075777;28;19909;-66
2021/12/11 09:54:24;;;;;;;;;;;8.00;59.70;;;;;;5075812;28;19936;-66
2021/12/11 09:56:53;;;;;;;;;;;8.00;59.70;;;;;;5075957;28;20295;-66
2021/12/11 09:59:21;;;;;;;;;;;8.00;59.70;;;;;;5075730;28;19919;-66
2021/12/11 10:01:49;;;;;;;;;;;8.10;59.80;;;;;;5075740;28;19996;-66
2021/12/11 10:04:17;;;;;;;;;;;8.10;59.80;;;;;;5075788;28;19911;-66
2021/12/11 10:07:12;;;;;;;;;;;8.10;59.80;;;;;;5075812;28;20385;-66
2021/12/11 10:09:45;;;;;;;;;;;8.10;59.70;;;;;;5075556;28;19908;-66
2021/12/11 10:12:16;;;;;;;;;;;8.10;59.70;;;;;;5075543;28;19908;-66
2021/12/11 10:14:59;;;;;;;;;;;8.10;59.80;;;;;;5075367;28;20318;-66
2021/12/11 10:17:29;;;;;;;;;;;8.20;59.80;;;;;;5075492;28;19920;-66
2021/12/11 10:19:56;;;;;;;;;;;8.20;59.80;;;;;;5074112;28;19952;-66
2021/12/11 10:22:24;;;;;;;;;;;8.20;59.80;;;;;;5075406;28;19918;-66
2021/12/11 10:24:50;;;;;;;;;;;8.20;59.80;;;;;;5075303;28;19983;-66
2021/12/11 10:27:17;;;;;;;;;;;8.20;59.80;;;;;;5075355;28;19974;-66
2021/12/11 10:29:45;;;;;;;;;;;8.20;59.80;;;;;;5075344;28;19908;-66
2021/12/11 10:32:13;;;;;;;;;;;8.30;59.80;;;;;;5075179;28;20021;-65
2021/12/11 10:34:40;;;;;;;;;;;8.20;59.80;;;;;;5074984;28;20317;-66
2021/12/11 10:37:08;;;;;;;;;;;8.20;59.70;;;;;;5075002;28;20372;-66
2021/12/11 10:39:35;;;;;;;;;;;8.30;59.80;;;;;;5074903;28;20224;-66
2021/12/11 10:42:01;;;;;;;;;;;8.30;59.80;;;;;;5074834;28;19953;-66
2021/12/11 10:44:28;;;;;;;;;;;8.30;59.70;;;;;;5074755;28;20341;-66
2021/12/11 10:47:02;;;;;;;;;;;8.30;59.60;;;;;;5074621;28;20364;-66
2021/12/11 10:49:28;;;;;;;;;;;8.30;59.60;;;;;;5074816;28;20362;-66
2021/12/11 10:51:58;;;;;;;;;;;8.30;59.50;;;;;;5074857;28;19908;-66
2021/12/11 10:54:24;;;;;;;;;;;8.30;59.60;;;;;;5074785;28;20285;-66
2021/12/11 10:56:50;;;;;;;;;;;8.30;59.60;;;;;;5074622;28;19909;-66
2021/12/11 10:59:20;;;;;;;;;;;8.30;59.60;;;;;;5074728;28;19912;-65
2021/12/11 11:01:58;;;;;;;;;;;8.30;59.70;;;;;;5074633;28;19957;-65
2021/12/11 11:04:47;;;;;;;;;;;8.30;59.50;;;;;;5074815;28;19904;-65
2021/12/11 11:07:14;;;;;;;;;;;8.30;59.50;;;;;;5074182;28;19932;-65
2021/12/11 11:09:40;;;;;;;;;;;8.30;59.50;;;;;;5074618;28;19905;-65
2021/12/11 11:12:09;;;;;;;;;;;8.30;59.50;;;;;;5074491;28;20299;-65
2021/12/11 11:14:35;;;;;;;;;;;8.30;59.60;;;;;;5074562;28;19909;-65
2021/12/11 11:17:04;;;;;;;;;;;8.40;59.80;;;;;;5074340;28;20923;-65
2021/12/11 11:19:30;;;;;;;;;;;8.40;59.90;;;;;;5074365;28;19916;-65
2021/12/11 11:22:03;;;;;;;;;;;8.50;59.90;;;;;;5073754;28;19908;-65
2021/12/11 11:24:30;;;;;;;;;;;8.50;59.90;;;;;;5074158;28;19909;-65
2021/12/11 11:26:58;;;;;;;;;;;8.60;59.90;;;;;;5074249;28;19999;-65
2021/12/11 11:29:24;;;;;;;;;;;8.70;59.80;;;;;;5074095;28;19909;-65
2021/12/11 11:31:53;;;;;;;;;;;8.70;59.70;;;;;;5074075;28;19915;-65
2021/12/11 11:34:20;;;;;;;;;;;8.80;59.60;;;;;;5073904;28;20007;-66
2021/12/11 11:36:46;;;;;;;;;;;8.80;59.50;;;;;;5073919;28;19916;-65
2021/12/11 11:39:13;;;;;;;;;;;8.80;59.50;;;;;;5073700;28;19919;-65
2021/12/11 11:41:41;;;;;;;;;;;8.90;59.60;;;;;;5073960;28;19989;-66
2021/12/11 11:44:07;;;;;;;;;;;8.90;59.60;;;;;;5073733;28;20030;-65
2021/12/11 11:46:34;;;;;;;;;;;9.00;59.80;;;;;;5073840;28;20322;-65
2021/12/11 11:49:00;;;;;;;;;;;9.00;59.70;;;;;;5073866;28;19908;-65
2021/12/11 11:51:26;;;;;;;;;;;9.10;59.70;;;;;;5073758;28;19936;-65
2021/12/11 11:53:52;;;;;;;;;;;9.10;59.60;;;;;;5073744;28;20378;-65
2021/12/11 11:56:19;;;;;;;;;;;9.20;59.60;;;;;;5073685;28;20350;-65
2021/12/11 11:58:45;;;;;;;;;;;9.30;59.60;;;;;;5073614;28;19919;-66
2021/12/11 12:01:20;;;;;;;;;;;9.40;59.60;;;;;;5072345;28;20293;-66
2021/12/11 12:03:46;;;;;;;;;;;9.40;59.50;;;;;;5073394;28;19991;-66
2021/12/11 12:06:13;;;;;;;;;;;9.50;59.50;;;;;;5073464;28;20016;-65
2021/12/11 12:08:39;;;;;;;;;;;9.60;59.40;;;;;;5072134;28;19909;-66
2021/12/11 12:11:06;;;;;;;;;;;9.60;59.40;;;;;;5073439;28;19919;-66
2021/12/11 12:13:32;;;;;;;;;;;9.60;59.30;;;;;;5072057;28;19912;-66
2021/12/11 12:16:06;;;;;;;;;;;9.70;59.20;;;;;;5073032;28;19947;-66
2021/12/11 12:18:31;;;;;;;;;;;9.70;59.10;;;;;;5073213;28;20358;-66
2021/12/11 12:20:58;;;;;;;;;;;9.70;58.80;;;;;;5073260;28;19916;-66
2021/12/11 12:23:25;;;;;;;;;;;9.70;58.70;;;;;;5073132;28;19912;-66
2021/12/11 12:25:51;;;;;;;;;;;9.70;58.70;;;;;;5073171;28;19913;-66
2021/12/11 12:28:18;;;;;;;;;;;9.70;58.70;;;;;;5073219;28;20010;-66
2021/12/11 12:30:55;;;;;;;;;;;9.70;58.60;;;;;;5073140;28;20393;-66
2021/12/11 12:33:21;;;;;;;;;;;9.70;58.60;;;;;;5072139;28;19916;-66
2021/12/11 12:35:47;;;;;;;;;;;9.70;58.60;;;;;;5073116;28;20404;-66
2021/12/11 12:38:14;;;;;;;;;;;9.70;58.60;;;;;;5072651;28;19912;-66
2021/12/11 12:40:48;;;;;;;;;;;9.70;58.40;;;;;;5073022;28;19977;-65
2021/12/11 12:43:21;;;;;;;;;;;9.60;58.30;;;;;;5073004;28;19976;-66
2021/12/11 12:45:49;;;;;;;;;;;9.60;58.30;;;;;;5073020;28;20015;-66
2021/12/11 12:48:17;;;;;;;;;;;9.60;58.30;;;;;;5072939;28;19914;-66
2021/12/11 12:50:49;;;;;;;;;;;9.50;58.30;;;;;;5072975;28;19956;-66
2021/12/11 12:53:16;;;;;;;;;;;9.50;58.30;;;;;;5072942;28;19958;-66
2021/12/11 12:55:44;;;;;;;;;;;9.50;58.20;;;;;;5072890;28;19908;-66
2021/12/11 12:58:15;;;;;;;;;;;9.40;58.00;;;;;;5072712;28;19912;-66
2021/12/11 13:00:46;;;;;;;;;;;9.30;58.00;;;;;;5073101;28;19916;-66
2021/12/11 13:03:14;;;;;;;;;;;9.30;58.10;;;;;;5071808;28;19989;-65
2021/12/11 13:05:42;;;;;;;;;;;9.20;58.20;;;;;;5072752;28;19909;-66
2021/12/11 13:08:11;;;;;;;;;;;9.20;58.20;;;;;;5072774;28;20416;-66
2021/12/11 13:10:40;;;;;;;;;;;9.20;58.30;;;;;;5072701;28;19909;-66
2021/12/11 13:13:07;;;;;;;;;;;9.20;58.30;;;;;;5072610;28;20354;-66
2021/12/11 13:15:36;;;;;;;;;;;9.10;58.30;;;;;;5072441;28;19916;-66
2021/12/11 13:18:05;;;;;;;;;;;9.20;58.40;;;;;;5072615;28;19935;-66
2021/12/11 13:20:38;;;;;;;;;;;9.10;58.30;;;;;;5072597;28;19908;-65
2021/12/11 13:23:05;;;;;;;;;;;9.10;58.30;;;;;;5072633;28;19909;-66
2021/12/11 13:25:34;;;;;;;;;;;9.10;58.30;;;;;;5072882;28;20273;-66
2021/12/11 13:28:01;;;;;;;;;;;9.10;58.40;;;;;;5072549;28;20384;-66
2021/12/11 13:30:28;;;;;;;;;;;9.10;58.50;;;;;;5072357;28;19961;-66
2021/12/11 13:32:54;;;;;;;;;;;9.10;58.50;;;;;;5072391;28;19909;-66
2021/12/11 13:35:21;;;;;;;;;;;9.10;58.50;;;;;;5072385;28;19908;-66
2021/12/11 13:37:47;;;;;;;;;;;9.00;58.40;;;;;;5072147;28;19991;-66
2021/12/11 13:40:14;;;;;;;;;;;9.10;58.40;;;;;;5072400;28;20038;-66
2021/12/11 13:42:41;;;;;;;;;;;9.00;58.50;;;;;;5072456;28;19948;-66
2021/12/11 13:45:10;;;;;;;;;;;9.00;58.40;;;;;;5075199;28;19908;-66
2021/12/11 13:47:36;;;;;;;;;;;9.00;58.50;;;;;;5076103;28;19916;-66
2021/12/11 13:50:05;;;;;;;;;;;9.00;58.50;;;;;;5076070;28;20294;-66
2021/12/11 13:52:31;;;;;;;;;;;9.00;58.60;;;;;;5075953;28;19913;-66
2021/12/11 13:54:56;;;;;;;;;;;9.00;58.60;;;;;;5075989;28;19931;-66
2021/12/11 13:57:25;;;;;;;;;;;9.00;58.60;;;;;;5074625;28;19931;-66
2021/12/11 14:00:02;;;;;;;;;;;9.00;58.60;;;;;;5076101;28;20243;-66
2021/12/11 14:02:28;;;;;;;;;;;9.00;58.60;;;;;;5075784;28;20323;-66
2021/12/11 14:04:54;;;;;;;;;;;9.00;58.60;;;;;;5075685;28;19913;-65
2021/12/11 14:07:21;;;;;;;;;;;8.90;58.60;;;;;;5075680;28;20362;-66
2021/12/11 14:09:54;;;;;;;;;;;8.90;58.60;;;;;;5075726;28;19915;-66
2021/12/11 14:12:21;;;;;;;;;;;8.90;58.70;;;;;;5075608;28;19909;-66
2021/12/11 14:14:46;;;;;;;;;;;8.90;58.70;;;;;;5075388;28;19958;-66
2021/12/11 14:17:12;;;;;;;;;;;8.90;58.60;;;;;;5075522;28;19912;-66
2021/12/11 14:19:38;;;;;;;;;;;8.90;58.60;;;;;;5075385;28;19916;-66
2021/12/11 14:22:05;;;;;;;;;;;8.90;58.60;;;;;;5075432;28;19908;-66
2021/12/11 14:24:31;;;;;;;;;;;8.90;58.70;;;;;;5075370;28;19916;-66
2021/12/11 14:26:58;;;;;;;;;;;8.90;58.70;;;;;;5074011;28;19908;-66
2021/12/11 14:29:24;;;;;;;;;;;8.90;58.80;;;;;;5075328;28;19909;-66
2021/12/11 14:31:50;;;;;;;;;;;8.90;58.80;;;;;;5075215;28;20259;-66
2021/12/11 14:34:15;;;;;;;;;;;8.90;58.80;;;;;;5075026;28;20361;-66
2021/12/11 14:36:42;;;;;;;;;;;8.90;58.80;;;;;;5074909;28;19908;-67
2021/12/11 14:39:10;;;;;;;;;;;8.90;58.80;;;;;;5074874;28;19912;-66
2021/12/11 14:41:38;;;;;;;;;;;8.80;58.70;;;;;;5074950;28;19912;-66
2021/12/11 14:44:10;;;;;;;;;;;8.80;58.70;;;;;;5074899;28;19999;-66
2021/12/11 14:46:36;;;;;;;;;;;8.80;58.70;;;;;;5074891;28;19912;-66
2021/12/11 14:49:03;;;;;;;;;;;8.80;58.70;;;;;;5075077;28;19931;-66
2021/12/11 14:51:29;;;;;;;;;;;8.80;58.80;;;;;;5075001;28;20289;-66
2021/12/11 14:53:57;;;;;;;;;;;8.80;58.80;;;;;;5074923;28;19977;-66
2021/12/11 14:56:27;;;;;;;;;;;8.80;58.80;;;;;;5072663;28;20008;-66
2021/12/11 14:58:55;;;;;;;;;;;8.80;58.80;;;;;;5073572;28;20003;-66